Time;durP1;ratioP1;P1;durP2;ratioP2;P2;SDS_P1;SDS_P2;PMS_P1;PMS_P2;Temp;Humidity;BMP_temperature;BMP_pressure;BME280_temperature;BME280_humidity;BME280_pressure;Samples;Min_cycle;Max_cycle;Signal;HPM_P1;HPM_P2
2022/02/17 00:00:06;;;;;;;32.63;16.70;;;;;;;5.25;100.00;92788.03;5071026;28;20051;-82
2022/02/17 00:02:33;;;;;;;29.58;16.73;;;;;;;5.18;100.00;92785.44;5071225;28;20098;-83
2022/02/17 00:05:00;;;;;;;30.77;16.23;;;;;;;5.49;100.00;92829.28;5070988;28;20070;-83
2022/02/17 00:07:27;;;;;;;29.38;15.65;;;;;;;5.17;100.00;92796.59;5071151;28;20056;-83
2022/02/17 00:09:55;;;;;;;23.30;14.82;;;;;;;5.39;100.00;92819.44;5071166;28;20067;-83
2022/02/17 00:12:22;;;;;;;26.13;14.77;;;;;;;5.22;100.00;92796.03;5071179;28;20052;-82
2022/02/17 00:14:49;;;;;;;22.80;13.57;;;;;;;5.29;100.00;92807.06;5070945;28;20064;-82
2022/02/17 00:17:16;;;;;;;24.58;14.05;;;;;;;5.34;100.00;92809.81;5070714;28;20506;-82
2022/02/17 00:19:43;;;;;;;22.60;13.80;;;;;;;4.72;100.00;92720.53;5070669;28;20041;-83
2022/02/17 00:22:10;;;;;;;20.63;13.75;;;;;;;5.44;100.00;92804.38;5070714;28;20040;-84
2022/02/17 00:24:37;;;;;;;23.08;14.10;;;;;;;5.34;100.00;92799.63;5071017;28;20135;-83
2022/02/17 00:27:05;;;;;;;24.90;13.95;;;;;;;5.40;100.00;92817.66;5070856;28;20059;-83
2022/02/17 00:29:32;;;;;;;24.45;13.68;;;;;;;5.33;100.00;92820.97;5070867;28;20063;-82
2022/02/17 00:32:00;;;;;;;23.02;12.07;;;;;;;5.34;100.00;92825.09;5070706;28;20499;-82
2022/02/17 00:34:26;;;;;;;20.58;13.30;;;;;;;4.30;100.00;92684.03;5070537;28;20052;-82
2022/02/17 00:36:53;;;;;;;22.30;13.02;;;;;;;5.16;100.00;92810.31;5070682;28;20053;-82
2022/02/17 00:39:21;;;;;;;28.40;13.85;;;;;;;4.47;100.00;92717.59;5070451;28;20048;-83
2022/02/17 00:41:49;;;;;;;28.20;13.88;;;;;;;5.04;100.00;92796.47;5069957;28;20833;-83
2022/02/17 00:44:17;;;;;;;25.83;13.73;;;;;;;5.10;100.00;92810.25;5070056;28;20460;-83
2022/02/17 00:46:44;;;;;;;20.88;13.13;;;;;;;4.48;100.00;92722.50;5069943;28;20053;-83
2022/02/17 00:49:11;;;;;;;25.45;13.98;;;;;;;4.90;100.00;92793.84;5070067;28;20056;-84
2022/02/17 00:51:38;;;;;;;28.42;14.55;;;;;;;4.91;100.00;92795.44;5070369;28;20075;-83
2022/02/17 00:54:05;;;;;;;24.10;13.90;;;;;;;4.84;100.00;92788.72;5069856;28;20469;-83
2022/02/17 00:56:32;;;;;;;22.75;13.02;;;;;;;4.46;100.00;92749.09;5070014;28;20047;-83
2022/02/17 00:58:59;;;;;;;23.73;14.05;;;;;;;4.60;100.00;92776.22;5070068;28;20056;-83
2022/02/17 01:01:27;;;;;;;22.38;14.50;;;;;;;4.40;100.00;92748.84;5070217;28;20045;-84
2022/02/17 01:03:55;;;;;;;21.20;12.88;;;;;;;4.13;100.00;92714.81;5069006;28;20048;-83
2022/02/17 01:06:22;;;;;;;23.88;13.27;;;;;;;4.58;100.00;92775.59;5069756;28;20434;-83
2022/02/17 01:08:49;;;;;;;26.73;14.27;;;;;;;4.73;100.00;92803.53;5069862;28;20056;-82
2022/02/17 01:11:16;;;;;;;21.25;12.77;;;;;;;4.68;100.00;92793.88;5069507;28;20053;-83
2022/02/17 01:13:43;;;;;;;21.02;13.07;;;;;;;4.50;100.00;92773.97;5058226;28;20044;-83
2022/02/17 01:16:10;;;;;;;26.67;13.63;;;;;;;4.43;100.00;92770.59;5058380;28;20040;-83
2022/02/17 01:18:38;;;;;;;29.70;13.45;;;;;;;4.53;100.00;92793.97;5060265;28;20055;-83
2022/02/17 01:21:06;;;;;;;23.52;13.43;;;;;;;3.86;100.00;92696.75;5060317;28;20049;-83
2022/02/17 01:23:33;;;;;;;19.88;13.48;;;;;;;3.95;100.00;92705.06;5058331;28;20041;-84
2022/02/17 01:26:01;;;;;;;22.88;13.95;;;;;;;4.27;100.00;92744.44;5059513;28;20387;-84
2022/02/17 01:28:29;;;;;;;26.95;14.50;;;;;;;3.92;100.00;92696.03;5060023;28;20049;-83
2022/02/17 01:30:56;;;;;;;26.20;15.38;;;;;;;4.47;100.00;92769.25;5058666;28;20143;-84
2022/02/17 01:33:23;;;;;;;25.77;15.23;;;;;;;4.43;100.00;92772.38;5066084;28;20072;-84
2022/02/17 01:35:52;;;;;;;26.58;15.63;;;;;;;3.75;100.00;92677.69;5069366;28;20048;-84
2022/02/17 01:38:21;;;;;;;30.73;15.70;;;;;;;3.90;100.00;92676.84;5069711;28;20040;-84
2022/02/17 01:40:50;;;;;;;30.08;16.33;;;;;;;3.87;100.00;92663.56;5069544;28;20048;-84
2022/02/17 01:43:18;;;;;;;31.88;17.85;;;;;;;3.88;100.00;92672.75;5069628;28;20068;-84
2022/02/17 01:45:46;;;;;;;35.53;17.52;;;;;;;3.99;100.00;92676.53;5069618;28;20056;-84
2022/02/17 01:48:13;;;;;;;32.78;16.95;;;;;;;4.37;100.00;92725.56;5069577;28;20127;-83
2022/02/17 01:50:41;;;;;;;33.13;16.20;;;;;;;4.41;100.00;92730.06;5069160;28;20040;-83
2022/02/17 01:53:11;;;;;;;25.02;14.13;;;;;;;4.14;100.00;92683.31;5069345;28;20048;-83
2022/02/17 01:55:38;;;;;;;25.77;13.23;;;;;;;4.45;100.00;92714.47;5069092;28;20156;-84
2022/02/17 01:58:06;;;;;;;24.60;12.88;;;;;;;4.65;100.00;92751.03;5069473;28;20056;-84
2022/02/17 02:00:34;;;;;;;17.27;11.32;;;;;;;4.58;100.00;92734.13;5069193;28;20040;-84
2022/02/17 02:03:01;;;;;;;21.10;12.63;;;;;;;4.73;100.00;92749.31;5069069;28;20140;-84
2022/02/17 02:05:28;;;;;;;19.35;11.45;;;;;;;4.17;100.00;92654.22;5069113;28;20048;-83
2022/02/17 02:07:55;;;;;;;17.75;11.32;;;;;;;4.70;100.00;92719.13;5069131;28;20484;-83
2022/02/17 02:10:24;;;;;;;17.83;10.93;;;;;;;4.79;100.00;92726.47;5069269;28;20052;-84
2022/02/17 02:12:51;;;;;;;24.27;12.77;;;;;;;4.85;100.00;92732.56;5063185;28;20635;-84
2022/02/17 02:15:18;;;;;;;25.00;12.32;;;;;;;4.30;100.00;92646.66;5058541;28;20072;-84
2022/02/17 02:17:46;;;;;;;19.33;10.90;;;;;;;4.79;100.00;92716.28;5060251;28;20041;-84
2022/02/17 02:20:17;;;;;;;19.83;10.30;;;;;;;4.80;100.00;92717.84;5058234;28;20504;-84
2022/02/17 02:22:44;;;;;;;20.77;12.02;;;;;;;4.84;100.00;92720.81;5058162;28;20044;-84
2022/02/17 02:25:12;;;;;;;21.08;12.68;;;;;;;4.99;100.00;92748.69;5058052;28;20480;-84
2022/02/17 02:27:39;;;;;;;27.08;12.95;;;;;;;4.48;100.00;92666.56;5059288;28;20412;-84
2022/02/17 02:30:08;;;;;;;22.33;12.35;;;;;;;4.46;100.00;92673.59;5063553;28;20064;-84
2022/02/17 02:32:37;;;;;;;18.50;11.98;;;;;;;5.06;100.00;92741.88;5062946;28;20045;-85
2022/02/17 02:35:05;;;;;;;17.92;11.10;;;;;;;4.89;100.00;92704.97;5062298;28;20051;-84
2022/02/17 02:37:33;;;;;;;23.33;11.85;;;;;;;5.07;100.00;92722.31;5061726;28;20053;-84
2022/02/17 02:40:00;;;;;;;20.40;11.50;;;;;;;4.64;100.00;92662.94;5062649;28;20129;-84
2022/02/17 02:42:27;;;;;;;16.17;10.45;;;;;;;5.16;100.00;92733.91;5064061;28;20049;-83
2022/02/17 02:44:54;;;;;;;20.25;10.73;;;;;;;5.05;100.00;92704.66;5062604;28;20052;-84
2022/02/17 02:47:22;;;;;;;18.40;10.55;;;;;;;4.65;100.00;92645.91;5061882;28;20407;-84
2022/02/17 02:49:50;;;;;;;19.52;11.20;;;;;;;5.25;100.00;92736.28;5063374;28;20049;-84
2022/02/17 02:52:17;;;;;;;15.05;10.38;;;;;;;5.22;100.00;92725.53;5062221;28;20060;-84
2022/02/17 02:54:45;;;;;;;20.85;11.80;;;;;;;4.69;100.00;92636.94;5061633;28;20044;-84
2022/02/17 02:57:12;;;;;;;20.33;11.07;;;;;;;5.13;100.00;92700.41;5061649;28;20373;-83
2022/02/17 02:59:41;;;;;;;19.70;12.15;;;;;;;4.82;100.00;92661.69;5062256;28;20476;-84
2022/02/17 03:02:08;;;;;;;18.00;12.10;;;;;;;5.26;100.00;92720.03;5063316;28;20045;-84
2022/02/17 03:04:35;;;;;;;22.17;12.65;;;;;;;5.32;100.00;92729.50;5062039;28;20060;-83
2022/02/17 03:07:02;;;;;;;24.10;13.30;;;;;;;5.33;100.00;92731.06;5061801;28;20037;-83
2022/02/17 03:09:29;;;;;;;18.88;11.80;;;;;;;5.35;100.00;92727.34;5063351;28;20056;-83
2022/02/17 03:11:57;;;;;;;19.58;11.75;;;;;;;4.72;100.00;92628.16;5062168;28;20044;-83
2022/02/17 03:14:24;;;;;;;20.75;11.30;;;;;;;4.99;100.00;92666.47;5061563;28;20041;-83
2022/02/17 03:16:51;;;;;;;17.55;11.02;;;;;;;5.17;100.00;92691.41;5061357;28;20041;-82
2022/02/17 03:19:18;;;;;;;19.52;11.60;;;;;;;5.03;100.00;92678.63;5062219;28;20045;-83
2022/02/17 03:21:45;;;;;;;15.45;10.80;;;;;;;5.34;100.00;92722.44;5063241;28;20059;-83
2022/02/17 03:24:12;;;;;;;26.02;14.25;;;;;;;4.39;100.00;92609.97;5061240;28;20037;-83
2022/02/17 03:26:38;;;;;;;24.58;14.23;;;;;;;5.21;100.00;92736.69;5062292;28;20143;-83
2022/02/17 03:29:07;;;;;;;35.60;17.20;;;;;;;5.15;100.00;92734.91;5062960;28;20058;-81
2022/02/17 03:31:34;;;;;;;30.75;18.90;;;;;;;5.17;100.00;92727.03;5061502;28;20077;-81
2022/02/17 03:34:00;;;;;;;32.45;17.50;;;;;;;4.66;100.00;92666.09;5061537;28;20044;-82
2022/02/17 03:36:27;;;;;;;36.63;19.05;;;;;;;5.01;100.00;92708.56;5063396;28;20369;-82
2022/02/17 03:38:56;;;;;;;36.47;19.02;;;;;;;4.84;100.00;92686.91;5071917;28;20044;-82
2022/02/17 03:41:23;;;;;;;35.72;18.95;;;;;;;4.64;100.00;92651.97;5072321;28;20056;-83
2022/02/17 03:43:50;;;;;;;28.63;16.83;;;;;;;4.31;100.00;92599.16;5071941;28;20051;-82
2022/02/17 03:46:18;;;;;;;28.85;15.68;;;;;;;4.94;100.00;92720.47;5072716;28;20044;-82
2022/02/17 03:48:45;;;;;;;29.95;19.00;;;;;;;4.64;100.00;92693.47;5071998;28;20056;-82
2022/02/17 03:51:12;;;;;;;26.55;16.17;;;;;;;4.49;100.00;92692.78;5072051;28;20067;-81
2022/02/17 03:53:38;;;;;;;26.90;16.60;;;;;;;4.60;100.00;92727.88;5071977;28;20049;-81
2022/02/17 03:56:05;;;;;;;40.50;17.65;;;;;;;4.54;100.00;92715.91;5072204;28;20052;-81
2022/02/17 04:01:18;;;;;;;36.05;17.45;;;;;;;4.22;100.00;92725.63;5072275;28;20063;-83
2022/02/17 04:03:45;;;;;;;32.72;18.75;;;;;;;4.09;100.00;92733.91;5071651;28;20044;-83
2022/02/17 04:06:12;;;;;;;30.17;17.85;;;;;;;3.99;100.00;92731.69;5071623;28;20400;-83
2022/02/17 04:08:38;;;;;;;34.55;19.30;;;;;;;3.62;100.00;92719.00;5071533;28;20053;-83
2022/02/17 04:11:05;;;;;;;30.35;17.38;;;;;;;3.49;100.00;92694.25;5071642;28;20365;-83
2022/02/17 04:13:32;;;;;;;35.80;19.85;;;;;;;3.74;100.00;92732.81;5071203;28;20048;-83
2022/02/17 04:15:59;;;;;;;39.17;21.15;;;;;;;2.98;100.00;92669.63;5071429;28;20036;-83
2022/02/17 04:18:27;;;;;;;39.13;21.65;;;;;;;3.63;100.00;92740.88;5071822;28;20055;-83
2022/02/17 04:20:55;;;;;;;51.95;22.42;;;;;;;3.42;100.00;92704.31;5071733;28;20067;-82
2022/02/17 04:23:22;;;;;;;52.25;27.73;;;;;;;3.64;100.00;92744.19;5071136;28;20052;-82
2022/02/17 04:25:49;;;;;;;45.75;24.70;;;;;;;3.38;100.00;92717.56;5071265;28;20456;-82
2022/02/17 04:28:16;;;;;;;42.00;22.30;;;;;;;3.40;100.00;92741.81;5071084;28;20040;-82
2022/02/17 04:30:43;;;;;;;38.67;23.08;;;;;;;3.44;100.00;92737.16;5071412;28;20041;-82
2022/02/17 04:33:10;;;;;;;38.38;23.33;;;;;;;3.50;100.00;92730.56;5070977;28;20052;-82
2022/02/17 04:35:38;;;;;;;35.50;21.80;;;;;;;3.71;100.00;92728.06;5071350;28;20048;-82
2022/02/17 04:38:05;;;;;;;38.33;20.73;;;;;;;3.47;100.00;92680.91;5071240;28;20067;-82
2022/02/17 04:43:16;;;;;;;40.53;21.30;;;;;;;4.13;100.00;92732.59;5070969;28;20396;-82
2022/02/17 04:45:43;;;;;;;42.95;23.60;;;;;;;3.58;100.00;92641.59;5070748;28;20051;-83
2022/02/17 04:48:10;;;;;;;53.10;29.23;;;;;;;4.32;100.00;92721.03;5070635;28;20507;-83
2022/02/17 04:50:38;;;;;;;42.78;23.02;;;;;;;4.03;100.00;92686.34;5069922;28;20044;-82
2022/02/17 04:53:05;;;;;;;50.15;31.63;;;;;;;4.14;100.00;92721.44;5070620;28;20055;-83
2022/02/17 04:55:32;;;;;;;54.92;36.08;;;;;;;4.08;100.00;92682.28;5070639;28;20056;-83
2022/02/17 04:57:59;;;;;;;47.83;25.38;;;;;;;3.79;100.00;92691.59;5070847;28;20494;-83
2022/02/17 05:00:26;;;;;;;37.78;22.65;;;;;;;3.60;100.00;92676.00;5070586;28;20052;-82
2022/02/17 05:02:53;;;;;;;44.08;20.70;;;;;;;2.88;100.00;92607.25;5070147;28;20047;-82
2022/02/17 05:05:20;;;;;;;51.25;22.92;;;;;;;3.15;100.00;92711.63;5069878;28;20040;-83
2022/02/17 05:07:48;;;;;;;47.90;24.42;;;;;;;3.11;100.00;92707.88;5069878;28;20048;-82
2022/02/17 05:10:15;;;;;;;41.88;22.20;;;;;;;2.85;100.00;92693.88;5069782;28;20500;-83
2022/02/17 05:12:42;;;;;;;61.17;28.27;;;;;;;3.14;100.00;92710.03;5070132;28;20052;-82
2022/02/17 05:15:09;;;;;;;54.90;25.23;;;;;;;3.14;100.00;92677.03;5069995;28;20048;-82
2022/02/17 05:17:36;;;;;;;116.82;48.15;;;;;;;3.27;100.00;92681.50;5069935;28;20123;-84
2022/02/17 05:20:04;;;;;;;129.23;52.70;;;;;;;2.81;100.00;92611.47;5069907;28;20043;-84
2022/02/17 05:22:32;;;;;;;90.88;41.35;;;;;;;3.15;100.00;92629.63;5069767;28;20044;-84
2022/02/17 05:25:00;;;;;;;67.60;33.10;;;;;;;3.78;100.00;92712.09;5069140;28;20090;-83
2022/02/17 05:27:28;;;;;;;136.45;53.05;;;;;;;3.73;100.00;92698.22;5069912;28;20050;-84
2022/02/17 05:29:55;;;;;;;84.93;38.65;;;;;;;3.10;100.00;92614.91;5069496;28;20399;-84
2022/02/17 05:32:22;;;;;;;109.95;44.10;;;;;;;3.88;100.00;92700.69;5069479;28;20040;-84
2022/02/17 05:34:50;;;;;;;123.90;51.05;;;;;;;3.76;100.00;92701.34;5069558;28;20109;-84
2022/02/17 05:37:17;;;;;;;126.20;48.90;;;;;;;3.59;100.00;92696.50;5069441;28;20051;-83
2022/02/17 05:39:44;;;;;;;110.13;42.50;;;;;;;2.85;100.00;92564.50;5069737;28;20052;-84
2022/02/17 05:42:12;;;;;;;64.97;28.92;;;;;;;3.29;100.00;92628.03;5069432;28;20040;-83
2022/02/17 05:44:39;;;;;;;65.07;31.95;;;;;;;3.88;100.00;92695.63;5069644;28;20047;-84
2022/02/17 05:47:08;;;;;;;69.00;30.73;;;;;;;3.44;100.00;92623.69;5069551;28;20048;-84
2022/02/17 05:49:35;;;;;;;59.40;28.00;;;;;;;3.50;100.00;92632.31;5068962;28;20045;-84
2022/02/17 05:52:02;;;;;;;92.22;43.78;;;;;;;3.44;100.00;92613.53;5068939;28;20072;-84
2022/02/17 05:54:30;;;;;;;183.52;74.57;;;;;;;3.61;100.00;92636.13;5068871;28;20040;-84
2022/02/17 05:57:02;;;;;;;179.55;83.75;;;;;;;3.56;100.00;92625.75;5069382;28;20357;-85
2022/02/17 05:59:36;;;;;;;182.65;79.85;;;;;;;3.75;100.00;92637.03;5068925;28;20051;-85
2022/02/17 06:02:04;;;;;;;105.63;50.50;;;;;;;3.73;100.00;92627.09;5071401;28;20051;-84
2022/02/17 06:04:32;;;;;;;103.88;48.00;;;;;;;4.24;100.00;92703.34;5075372;28;20109;-84
2022/02/17 06:07:00;;;;;;;91.30;42.95;;;;;;;4.37;100.00;92705.22;5075928;28;20044;-84
2022/02/17 06:09:27;;;;;;;85.57;42.47;;;;;;;4.41;100.00;92697.03;5075977;28;20048;-84
2022/02/17 06:11:55;;;;;;;88.05;43.67;;;;;;;4.66;100.00;92713.63;5075942;28;20149;-84
2022/02/17 06:14:23;;;;;;;74.82;39.60;;;;;;;4.59;100.00;92689.91;5076142;28;20115;-84
2022/02/17 06:16:53;;;;;;;76.75;40.60;;;;;;;4.24;100.00;92635.50;5075859;28;20048;-84
2022/02/17 06:19:22;;;;;;;80.30;41.65;;;;;;;4.51;100.00;92639.97;5075991;28;20881;-85
2022/02/17 06:21:50;;;;;;;85.53;42.22;;;;;;;4.44;100.00;92644.22;5074984;28;20050;-85
2022/02/17 06:24:18;;;;;;;83.80;44.10;;;;;;;5.03;100.00;92738.91;5075831;28;20041;-84
2022/02/17 06:26:46;;;;;;;78.10;40.25;;;;;;;4.49;100.00;92683.38;5075184;28;20094;-84
2022/02/17 06:29:15;;;;;;;55.80;29.27;;;;;;;5.02;100.00;92745.78;5073050;28;20152;-84
2022/02/17 06:31:44;;;;;;;57.33;30.92;;;;;;;4.42;100.00;92659.66;5073623;28;20055;-84
2022/02/17 06:34:16;;;;;;;49.33;29.95;;;;;;;4.31;100.00;92662.72;5074979;28;20484;-85
2022/02/17 06:36:48;;;;;;;61.58;35.70;;;;;;;4.02;100.00;92657.59;5075460;28;20109;-85
2022/02/17 06:39:18;;;;;;;61.30;39.80;;;;;;;4.46;100.00;92737.19;5075520;28;20059;-85
2022/02/17 06:41:47;;;;;;;57.47;34.47;;;;;;;4.48;100.00;92760.66;5075363;28;20048;-84
2022/02/17 06:44:16;;;;;;;56.88;32.85;;;;;;;4.00;100.00;92680.69;5075058;28;20128;-85
2022/02/17 06:46:46;;;;;;;45.65;29.30;;;;;;;4.58;100.00;92755.25;5075224;28;20072;-85
2022/02/17 06:49:21;;;;;;;54.72;30.95;;;;;;;3.88;100.00;92688.00;5075080;28;20467;-85
2022/02/17 06:51:50;;;;;;;45.60;29.30;;;;;;;4.38;100.00;92755.09;5074926;28;20407;-85
2022/02/17 06:54:19;;;;;;;59.05;35.58;;;;;;;3.93;100.00;92667.09;5074871;28;20056;-85
2022/02/17 06:56:46;;;;;;;45.50;27.90;;;;;;;4.66;100.00;92746.69;5075077;28;20394;-85
2022/02/17 06:59:14;;;;;;;50.00;29.30;;;;;;;4.32;100.00;92689.72;5075034;28;20051;-84
2022/02/17 07:01:49;;;;;;;47.90;29.92;;;;;;;4.71;100.00;92758.88;5075173;28;20086;-85
2022/02/17 07:04:26;;;;;;;43.45;27.10;;;;;;;4.39;100.00;92677.81;5074896;28;20036;-86
2022/02/17 07:06:57;;;;;;;39.50;23.55;;;;;;;4.31;100.00;92670.34;5074707;28;20049;-85
2022/02/17 07:09:28;;;;;;;43.10;25.65;;;;;;;4.65;100.00;92692.50;5075016;28;20044;-85
2022/02/17 07:12:02;;;;;;;39.13;21.73;;;;;;;4.84;100.00;92684.38;5074878;28;20118;-85
2022/02/17 07:14:32;;;;;;;48.95;26.60;;;;;;;5.21;100.00;92731.59;5071832;28;20123;-85
2022/02/17 07:17:04;;;;;;;37.75;22.63;;;;;;;5.22;100.00;92743.34;5071729;28;20051;-85
2022/02/17 07:19:39;;;;;;;35.70;20.17;;;;;;;4.39;100.00;92604.09;5071322;28;20040;-85
2022/02/17 07:22:08;;;;;;;34.92;21.05;;;;;;;4.54;100.00;92634.53;5071727;28;20110;-85
2022/02/17 07:24:38;;;;;;;34.95;21.60;;;;;;;4.75;100.00;92646.38;5071694;28;20048;-85
2022/02/17 07:27:10;;;;;;;38.40;21.90;;;;;;;4.95;100.00;92660.94;5071312;28;20044;-85
2022/02/17 07:29:44;;;;;;;49.17;27.63;;;;;;;4.81;100.00;92645.63;5071570;28;20055;-85
2022/02/17 07:32:15;;;;;;;57.90;31.95;;;;;;;4.99;100.00;92646.88;5071342;28;20403;-85
2022/02/17 07:34:45;;;;;;;58.42;31.48;;;;;;;5.59;100.00;92704.91;5071212;28;20067;-85
2022/02/17 07:37:16;;;;;;;57.85;33.53;;;;;;;5.81;100.00;92703.97;5071145;28;20477;-85
2022/02/17 07:39:44;;;;;;;55.30;31.60;;;;;;;5.94;100.00;92698.91;5071129;28;20071;-85
2022/02/17 07:42:12;;;;;;;49.28;28.73;;;;;;;6.12;100.00;92697.59;5071218;28;20040;-85
2022/02/17 07:44:41;;;;;;;53.92;34.13;;;;;;;6.17;100.00;92662.09;5071609;28;20036;-85
2022/02/17 07:47:09;;;;;;;40.22;24.63;;;;;;;6.06;100.00;92624.44;5071342;28;20373;-85
2022/02/17 08:03:03;;;;;;;18.13;9.43;;;;;;;8.79;100.00;92677.28;5080093;27;1415841;-84
2022/02/17 08:05:30;;;;;;;15.27;9.63;;;;;;;8.84;100.00;92675.88;5107996;28;20040;-83
2022/02/17 08:07:57;;;;;;;10.13;6.70;;;;;;;8.77;100.00;92663.91;5108298;28;20044;-84
2022/02/17 08:10:23;;;;;;;13.02;8.88;;;;;;;8.96;100.00;92676.72;5108128;28;20478;-84
2022/02/17 08:12:50;;;;;;;13.30;7.28;;;;;;;8.99;100.00;92652.47;5108227;28;20155;-84
2022/02/17 08:15:17;;;;;;;14.70;7.90;;;;;;;9.23;100.00;92676.44;5107933;28;20051;-83
2022/02/17 08:17:44;;;;;;;15.43;7.43;;;;;;;9.34;100.00;92672.38;5107925;28;20048;-84
2022/02/17 08:20:13;;;;;;;10.80;6.38;;;;;;;9.53;100.00;92674.94;5107340;28;20052;-84
2022/02/17 08:22:48;;;;;;;12.82;6.47;;;;;;;9.69;100.00;92663.28;5107971;28;20052;-84
2022/02/17 08:25:15;;;;;;;12.65;7.00;;;;;;;9.88;100.00;92669.16;5108397;28;20138;-84
2022/02/17 08:27:42;;;;;;;10.60;6.15;;;;;;;10.01;100.00;92671.53;5108006;28;20051;-83
2022/02/17 08:30:10;;;;;;;12.98;6.47;;;;;;;10.09;100.00;92667.09;5108031;28;20046;-83
2022/02/17 08:32:38;;;;;;;11.88;7.55;;;;;;;10.28;100.00;92673.69;5107608;28;20055;-84
2022/02/17 08:35:07;;;;;;;17.10;8.20;;;;;;;10.46;100.00;92666.94;5107781;28;20047;-84
2022/02/17 08:37:35;;;;;;;15.45;6.50;;;;;;;10.50;100.00;92664.72;5107785;28;20054;-84
2022/02/17 08:40:02;;;;;;;13.00;7.07;;;;;;;10.60;100.00;92666.75;5107850;28;20052;-83
2022/02/17 08:42:29;;;;;;;12.88;8.30;;;;;;;10.61;100.00;92635.72;5107636;28;20504;-83
2022/02/17 08:44:56;;;;;;;13.75;7.03;;;;;;;10.80;99.39;92651.00;5108069;28;20044;-83
2022/02/17 08:47:23;;;;;;;10.60;6.00;;;;;;;10.81;98.30;92652.56;5107492;28;20048;-84
2022/02/17 08:49:49;;;;;;;10.60;5.97;;;;;;;10.85;98.65;92658.03;5107559;28;20048;-84
2022/02/17 08:52:16;;;;;;;11.43;5.05;;;;;;;10.88;98.87;92660.16;5107558;28;20043;-84
2022/02/17 08:54:44;;;;;;;10.32;5.85;;;;;;;10.93;98.53;92652.56;5107458;28;20426;-83
2022/02/17 08:57:11;;;;;;;9.35;5.60;;;;;;;10.92;98.83;92651.00;5107445;28;20048;-84
2022/02/17 08:59:38;;;;;;;9.20;5.30;;;;;;;10.62;98.69;92621.84;5107561;28;20040;-84
2022/02/17 09:02:05;;;;;;;7.65;5.90;;;;;;;10.89;99.66;92654.00;5104683;28;20056;-84
2022/02/17 09:04:32;;;;;;;12.82;5.93;;;;;;;10.92;99.27;92654.31;5093849;28;20052;-83
2022/02/17 09:07:00;;;;;;;9.90;5.30;;;;;;;10.84;98.94;92626.44;5093550;28;20044;-83
2022/02/17 09:09:27;;;;;;;10.32;5.45;;;;;;;11.08;98.86;92641.81;5093699;28;20051;-85
2022/02/17 09:11:55;;;;;;;12.25;6.53;;;;;;;11.17;98.93;92652.50;5093494;28;20055;-84
2022/02/17 09:14:22;;;;;;;11.57;6.40;;;;;;;11.30;99.20;92651.47;5093502;28;20044;-84
2022/02/17 09:16:50;;;;;;;10.68;6.38;;;;;;;11.27;98.63;92655.28;5092468;28;20052;-85
2022/02/17 09:19:17;;;;;;;11.32;5.97;;;;;;;11.19;98.36;92656.41;5093311;28;20044;-83
2022/02/17 09:21:44;;;;;;;10.80;5.05;;;;;;;11.20;98.26;92654.63;5093655;28;20105;-83
2022/02/17 09:24:10;;;;;;;10.32;5.65;;;;;;;11.14;97.70;92653.75;5093164;28;20044;-84
2022/02/17 09:26:37;;;;;;;9.85;6.03;;;;;;;11.03;98.00;92650.19;5093201;28;20040;-83
2022/02/17 09:29:06;;;;;;;11.70;6.28;;;;;;;11.18;98.67;92651.50;5093203;28;20074;-84
2022/02/17 09:31:33;;;;;;;13.60;5.85;;;;;;;11.19;98.80;92650.47;5093299;28;20121;-84
2022/02/17 09:34:02;;;;;;;10.20;5.93;;;;;;;11.03;98.93;92623.72;5093159;28;20044;-84
2022/02/17 09:36:29;;;;;;;13.80;5.97;;;;;;;11.29;99.13;92642.22;5092950;28;20040;-83
2022/02/17 09:38:57;;;;;;;12.35;6.93;;;;;;;11.38;99.14;92651.09;5092975;28;20040;-84
2022/02/17 09:41:25;;;;;;;12.27;5.47;;;;;;;11.38;97.84;92643.41;5092851;28;20545;-84
2022/02/17 09:43:53;;;;;;;13.45;6.07;;;;;;;11.38;97.05;92635.69;5050818;28;20057;-85
2022/02/17 09:46:22;;;;;;;11.60;6.15;;;;;;;11.50;96.41;92645.94;5052985;28;20103;-83
2022/02/17 09:48:55;;;;;;;12.18;4.90;;;;;;;11.57;95.63;92650.97;5052570;28;20053;-86
2022/02/17 09:51:24;;;;;;;14.73;6.28;;;;;;;11.61;95.60;92657.19;5052542;28;20049;-84
2022/02/17 09:53:52;;;;;;;13.35;5.85;;;;;;;11.75;95.30;92648.19;5052892;28;20123;-83
2022/02/17 09:56:19;;;;;;;9.35;5.15;;;;;;;11.90;94.97;92639.94;5052340;28;20059;-84
2022/02/17 09:58:47;;;;;;;14.10;6.93;;;;;;;11.90;94.80;92624.50;5052288;28;20136;-84
2022/02/17 10:01:19;;;;;;;10.13;5.45;;;;;;;12.08;95.13;92642.59;5052375;28;20476;-84
2022/02/17 10:03:48;;;;;;;11.20;5.10;;;;;;;12.32;92.88;92640.66;5052297;28;20053;-84
2022/02/17 10:06:20;;;;;;;19.33;9.20;;;;;;;12.50;92.27;92641.44;5052151;28;20127;-84
2022/02/17 10:08:47;;;;;;;9.23;4.80;;;;;;;12.68;87.14;92632.66;5052200;28;20051;-84
2022/02/17 10:11:28;;;;;;;18.77;11.05;;;;;;;12.72;86.82;92615.69;5052073;28;20051;-84
2022/02/17 10:14:03;;;;;;;14.52;6.88;;;;;;;12.86;86.26;92630.84;5051300;28;20055;-84
2022/02/17 10:16:31;;;;;;;6.07;4.03;;;;;;;12.95;86.18;92627.63;5052022;28;20073;-83
2022/02/17 10:19:11;;;;;;;12.52;4.97;;;;;;;13.04;85.54;92617.66;5051934;28;20049;-84
2022/02/17 10:21:38;;;;;;;11.15;6.38;;;;;;;13.06;84.97;92620.00;5052191;28;20546;-83
2022/02/17 10:24:05;;;;;;;19.83;11.52;;;;;;;13.07;84.07;92603.53;5052118;28;20053;-83
2022/02/17 10:26:32;;;;;;;29.70;14.35;;;;;;;13.30;83.14;92612.03;5051934;28;20461;-84
2022/02/17 10:29:01;;;;;;;49.58;26.85;;;;;;;13.50;82.85;92606.34;5051861;28;20044;-84
2022/02/17 10:31:29;;;;;;;11.35;6.57;;;;;;;13.53;81.52;92589.59;5051545;28;20053;-84
2022/02/17 10:33:58;;;;;;;15.52;7.60;;;;;;;13.40;81.67;92596.66;5051893;28;20107;-83
2022/02/17 10:36:37;;;;;;;12.30;6.18;;;;;;;13.25;81.68;92593.91;5051673;28;20497;-84
2022/02/17 10:39:13;;;;;;;13.80;7.00;;;;;;;13.20;82.58;92587.66;5051651;28;20049;-84
2022/02/17 10:41:51;;;;;;;14.38;7.55;;;;;;;13.26;83.17;92593.69;5051520;28;20056;-84
2022/02/17 10:44:19;;;;;;;83.55;35.78;;;;;;;13.28;83.23;92577.97;5051548;28;20618;-84
2022/02/17 10:46:51;;;;;;;60.97;25.73;;;;;;;13.27;83.51;92566.06;5051445;28;20045;-83
2022/02/17 10:49:20;;;;;;;42.38;18.08;;;;;;;13.18;83.13;92560.56;5051417;28;20063;-85
2022/02/17 10:51:49;;;;;;;20.52;10.25;;;;;;;13.09;83.66;92529.28;5051391;28;20140;-84
2022/02/17 10:54:21;;;;;;;57.10;23.70;;;;;;;13.16;83.73;92550.50;5051223;28;20514;-83
2022/02/17 10:56:51;;;;;;;33.75;15.02;;;;;;;13.08;84.27;92545.78;5051354;28;20132;-83
2022/02/17 11:02:01;;;;;;;9.43;5.35;;;;;;;12.58;82.59;92489.03;5050153;28;20416;-85
2022/02/17 11:04:28;;;;;;;63.17;24.75;;;;;;;12.75;84.35;92524.25;5051108;28;20048;-84
2022/02/17 11:06:56;;;;;;;80.68;35.47;;;;;;;12.62;86.14;92527.97;5051024;28;20060;-84
2022/02/17 11:09:24;;;;;;;52.90;23.05;;;;;;;12.70;86.38;92525.75;5062579;28;20052;-84
2022/02/17 11:11:52;;;;;;;31.88;15.27;;;;;;;12.64;87.24;92520.78;5070846;28;20094;-84
2022/02/17 11:14:37;;;;;;;14.75;7.47;;;;;;;12.66;86.74;92518.75;5071033;28;20455;-84
2022/02/17 11:17:06;;;;;;;22.38;10.98;;;;;;;12.74;86.81;92507.25;5068798;28;20127;-84
2022/02/17 11:19:33;;;;;;;14.05;6.50;;;;;;;12.78;85.54;92506.50;5067668;28;20052;-85
2022/02/17 11:22:02;;;;;;;46.42;20.95;;;;;;;12.66;85.71;92490.41;5060172;28;20123;-85
2022/02/17 11:24:29;;;;;;;11.85;6.47;;;;;;;12.85;85.07;92508.13;5057465;28;20408;-84
2022/02/17 11:27:03;;;;;;;17.45;8.75;;;;;;;12.80;84.80;92495.97;5060042;28;20094;-85
2022/02/17 11:29:33;;;;;;;10.75;5.00;;;;;;;12.80;84.46;92506.28;5057566;28;20055;-84
2022/02/17 11:32:02;;;;;;;31.70;16.65;;;;;;;12.77;83.86;92502.38;5060192;28;20139;-83
2022/02/17 11:34:41;;;;;;;28.50;16.35;;;;;;;12.63;83.36;92467.72;5056561;28;20049;-83
2022/02/17 11:37:42;;;;;;;10.57;5.80;;;;;;;12.81;83.82;92480.28;5059848;28;20041;-85
2022/02/17 11:40:10;;;;;;;10.15;6.05;;;;;;;12.66;82.79;92464.63;5062405;28;20543;-83
2022/02/17 11:42:42;;;;;;;12.68;7.40;;;;;;;12.72;83.51;92473.97;5058556;28;20056;-84
2022/02/17 11:45:13;;;;;;;12.20;5.97;;;;;;;12.57;82.28;92466.84;5051202;28;20045;-87